sensor_id;sensor_type;location;lat;lon;timestamp;P1;durP1;ratioP1;P2;durP2;ratioP2
15490;SDS011;7847;50.930;4.336;2022-08-02T00:01:37;0.10;;;0.10;;
15490;SDS011;7847;50.930;4.336;2022-08-02T00:04:03;0.10;;;0.10;;
15490;SDS011;7847;50.930;4.336;2022-08-02T00:06:29;0.10;;;0.10;;
15490;SDS011;7847;50.930;4.336;2022-08-02T00:08:55;0.10;;;0.10;;
15490;SDS011;7847;50.930;4.336;2022-08-02T00:11:21;0.10;;;0.10;;
15490;SDS011;7847;50.930;4.336;2022-08-02T00:13:47;0.10;;;0.10;;
15490;SDS011;7847;50.930;4.336;2022-08-02T00:16:13;0.00;;;0.00;;
15490;SDS011;7847;50.930;4.336;2022-08-02T00:18:40;0.10;;;0.10;;
15490;SDS011;7847;50.930;4.336;2022-08-02T00:21:07;0.00;;;0.00;;
15490;SDS011;7847;50.930;4.336;2022-08-02T00:23:33;0.10;;;0.10;;
15490;SDS011;7847;50.930;4.336;2022-08-02T00:25:59;0.10;;;0.10;;
15490;SDS011;7847;50.930;4.336;2022-08-02T00:28:25;0.10;;;0.10;;
15490;SDS011;7847;50.930;4.336;2022-08-02T00:30:51;0.10;;;0.10;;
15490;SDS011;7847;50.930;4.336;2022-08-02T00:33:17;0.10;;;0.10;;
15490;SDS011;7847;50.930;4.336;2022-08-02T00:35:43;0.10;;;0.10;;
15490;SDS011;7847;50.930;4.336;2022-08-02T00:38:12;0.10;;;0.10;;
15490;SDS011;7847;50.930;4.336;2022-08-02T00:40:39;0.10;;;0.10;;
15490;SDS011;7847;50.930;4.336;2022-08-02T00:43:06;0.10;;;0.10;;
15490;SDS011;7847;50.930;4.336;2022-08-02T00:45:33;0.10;;;0.10;;
15490;SDS011;7847;50.930;4.336;2022-08-02T00:47:59;0.10;;;0.10;;
15490;SDS011;7847;50.930;4.336;2022-08-02T00:50:26;0.10;;;0.10;;
15490;SDS011;7847;50.930;4.336;2022-08-02T00:52:52;0.10;;;0.10;;
15490;SDS011;7847;50.930;4.336;2022-08-02T00:55:18;0.10;;;0.10;;
15490;SDS011;7847;50.930;4.336;2022-08-02T00:57:44;0.05;;;0.05;;
15490;SDS011;7847;50.930;4.336;2022-08-02T01:00:10;0.10;;;0.10;;
15490;SDS011;7847;50.930;4.336;2022-08-02T01:02:37;0.10;;;0.10;;
15490;SDS011;7847;50.930;4.336;2022-08-02T01:05:03;0.10;;;0.10;;
15490;SDS011;7847;50.930;4.336;2022-08-02T01:07:29;0.10;;;0.10;;
15490;SDS011;7847;50.930;4.336;2022-08-02T01:09:55;0.10;;;0.10;;
15490;SDS011;7847;50.930;4.336;2022-08-02T01:12:22;0.10;;;0.10;;
15490;SDS011;7847;50.930;4.336;2022-08-02T01:14:51;0.10;;;0.10;;
15490;SDS011;7847;50.930;4.336;2022-08-02T01:17:19;0.10;;;0.10;;
15490;SDS011;7847;50.930;4.336;2022-08-02T01:22:49;0.00;;;0.00;;
15490;SDS011;7847;50.930;4.336;2022-08-02T01:30:45;0.10;;;0.10;;
15490;SDS011;7847;50.930;4.336;2022-08-02T01:33:14;0.10;;;0.10;;
15490;SDS011;7847;50.930;4.336;2022-08-02T01:35:42;0.10;;;0.10;;
15490;SDS011;7847;50.930;4.336;2022-08-02T01:38:11;0.10;;;0.10;;
15490;SDS011;7847;50.930;4.336;2022-08-02T01:40:39;0.10;;;0.10;;
15490;SDS011;7847;50.930;4.336;2022-08-02T01:43:06;0.10;;;0.10;;
15490;SDS011;7847;50.930;4.336;2022-08-02T01:45:34;0.10;;;0.10;;
15490;SDS011;7847;50.930;4.336;2022-08-02T01:48:02;0.10;;;0.10;;
15490;SDS011;7847;50.930;4.336;2022-08-02T01:50:30;0.10;;;0.10;;
15490;SDS011;7847;50.930;4.336;2022-08-02T01:52:57;0.10;;;0.10;;
15490;SDS011;7847;50.930;4.336;2022-08-02T01:55:25;0.10;;;0.10;;
15490;SDS011;7847;50.930;4.336;2022-08-02T01:57:58;0.10;;;0.10;;
15490;SDS011;7847;50.930;4.336;2022-08-02T02:00:27;0.00;;;0.00;;
15490;SDS011;7847;50.930;4.336;2022-08-02T02:02:54;0.10;;;0.10;;
15490;SDS011;7847;50.930;4.336;2022-08-02T02:05:22;0.03;;;0.03;;
15490;SDS011;7847;50.930;4.336;2022-08-02T02:07:49;0.10;;;0.10;;
15490;SDS011;7847;50.930;4.336;2022-08-02T02:10:17;0.10;;;0.10;;
15490;SDS011;7847;50.930;4.336;2022-08-02T02:12:45;0.10;;;0.10;;
15490;SDS011;7847;50.930;4.336;2022-08-02T02:15:12;0.10;;;0.10;;
15490;SDS011;7847;50.930;4.336;2022-08-02T02:17:40;0.10;;;0.10;;
15490;SDS011;7847;50.930;4.336;2022-08-02T02:20:07;0.00;;;0.00;;
15490;SDS011;7847;50.930;4.336;2022-08-02T02:22:34;0.10;;;0.10;;
15490;SDS011;7847;50.930;4.336;2022-08-02T02:25:00;0.10;;;0.10;;
15490;SDS011;7847;50.930;4.336;2022-08-02T02:27:26;0.10;;;0.10;;
15490;SDS011;7847;50.930;4.336;2022-08-02T02:29:53;0.10;;;0.10;;
15490;SDS011;7847;50.930;4.336;2022-08-02T02:32:20;0.10;;;0.10;;
15490;SDS011;7847;50.930;4.336;2022-08-02T02:34:48;0.10;;;0.10;;
15490;SDS011;7847;50.930;4.336;2022-08-02T02:37:19;0.10;;;0.10;;
15490;SDS011;7847;50.930;4.336;2022-08-02T02:39:45;0.10;;;0.10;;
15490;SDS011;7847;50.930;4.336;2022-08-02T02:42:14;0.10;;;0.10;;
15490;SDS011;7847;50.930;4.336;2022-08-02T02:44:41;0.10;;;0.10;;
15490;SDS011;7847;50.930;4.336;2022-08-02T02:47:07;0.00;;;0.00;;
15490;SDS011;7847;50.930;4.336;2022-08-02T02:49:34;0.10;;;0.10;;
15490;SDS011;7847;50.930;4.336;2022-08-02T02:52:01;0.20;;;0.20;;
15490;SDS011;7847;50.930;4.336;2022-08-02T02:54:28;0.10;;;0.10;;
15490;SDS011;7847;50.930;4.336;2022-08-02T02:56:55;0.10;;;0.10;;
15490;SDS011;7847;50.930;4.336;2022-08-02T02:59:22;0.10;;;0.10;;
15490;SDS011;7847;50.930;4.336;2022-08-02T03:01:49;0.10;;;0.10;;
15490;SDS011;7847;50.930;4.336;2022-08-02T03:04:16;0.10;;;0.10;;
15490;SDS011;7847;50.930;4.336;2022-08-02T03:06:42;0.10;;;0.10;;
15490;SDS011;7847;50.930;4.336;2022-08-02T03:09:08;0.10;;;0.10;;
15490;SDS011;7847;50.930;4.336;2022-08-02T03:11:35;0.10;;;0.10;;
15490;SDS011;7847;50.930;4.336;2022-08-02T03:14:02;0.10;;;0.10;;
15490;SDS011;7847;50.930;4.336;2022-08-02T03:16:28;0.10;;;0.10;;
15490;SDS011;7847;50.930;4.336;2022-08-02T03:18:55;0.10;;;0.10;;
15490;SDS011;7847;50.930;4.336;2022-08-02T03:21:21;0.10;;;0.10;;
15490;SDS011;7847;50.930;4.336;2022-08-02T03:23:48;0.10;;;0.10;;
15490;SDS011;7847;50.930;4.336;2022-08-02T03:26:14;0.10;;;0.10;;
15490;SDS011;7847;50.930;4.336;2022-08-02T03:28:40;0.10;;;0.10;;
15490;SDS011;7847;50.930;4.336;2022-08-02T03:31:07;0.10;;;0.10;;
15490;SDS011;7847;50.930;4.336;2022-08-02T03:33:34;0.13;;;0.13;;
15490;SDS011;7847;50.930;4.336;2022-08-02T03:36:01;0.10;;;0.10;;
15490;SDS011;7847;50.930;4.336;2022-08-02T03:38:28;0.10;;;0.10;;
15490;SDS011;7847;50.930;4.336;2022-08-02T03:40:55;0.10;;;0.10;;
15490;SDS011;7847;50.930;4.336;2022-08-02T03:43:21;0.10;;;0.10;;
15490;SDS011;7847;50.930;4.336;2022-08-02T03:45:48;0.10;;;0.10;;
15490;SDS011;7847;50.930;4.336;2022-08-02T03:48:15;0.20;;;0.20;;
15490;SDS011;7847;50.930;4.336;2022-08-02T03:50:42;0.10;;;0.10;;
15490;SDS011;7847;50.930;4.336;2022-08-02T03:53:09;0.17;;;0.17;;
15490;SDS011;7847;50.930;4.336;2022-08-02T03:55:38;0.10;;;0.10;;
15490;SDS011;7847;50.930;4.336;2022-08-02T03:58:04;0.10;;;0.10;;
15490;SDS011;7847;50.930;4.336;2022-08-02T04:00:30;0.10;;;0.10;;
15490;SDS011;7847;50.930;4.336;2022-08-02T04:02:57;0.10;;;0.10;;
15490;SDS011;7847;50.930;4.336;2022-08-02T04:05:23;0.10;;;0.10;;
15490;SDS011;7847;50.930;4.336;2022-08-02T04:07:49;0.10;;;0.10;;
15490;SDS011;7847;50.930;4.336;2022-08-02T04:10:16;0.10;;;0.10;;
15490;SDS011;7847;50.930;4.336;2022-08-02T04:12:42;0.10;;;0.10;;
15490;SDS011;7847;50.930;4.336;2022-08-02T04:15:10;0.10;;;0.10;;
15490;SDS011;7847;50.930;4.336;2022-08-02T04:17:39;0.10;;;0.10;;
15490;SDS011;7847;50.930;4.336;2022-08-02T04:20:11;0.10;;;0.10;;
15490;SDS011;7847;50.930;4.336;2022-08-02T04:22:57;0.10;;;0.10;;
15490;SDS011;7847;50.930;4.336;2022-08-02T04:25:25;0.20;;;0.20;;
15490;SDS011;7847;50.930;4.336;2022-08-02T04:27:52;0.10;;;0.10;;
15490;SDS011;7847;50.930;4.336;2022-08-02T04:30:18;0.10;;;0.10;;
15490;SDS011;7847;50.930;4.336;2022-08-02T04:32:45;0.10;;;0.10;;
15490;SDS011;7847;50.930;4.336;2022-08-02T04:35:11;0.10;;;0.10;;
15490;SDS011;7847;50.930;4.336;2022-08-02T04:37:38;0.10;;;0.10;;
15490;SDS011;7847;50.930;4.336;2022-08-02T04:40:09;0.10;;;0.10;;
15490;SDS011;7847;50.930;4.336;2022-08-02T04:42:35;0.10;;;0.10;;
15490;SDS011;7847;50.930;4.336;2022-08-02T04:45:01;0.10;;;0.10;;
15490;SDS011;7847;50.930;4.336;2022-08-02T04:47:28;0.10;;;0.10;;
15490;SDS011;7847;50.930;4.336;2022-08-02T04:49:54;0.10;;;0.10;;
15490;SDS011;7847;50.930;4.336;2022-08-02T04:52:20;0.10;;;0.10;;
15490;SDS011;7847;50.930;4.336;2022-08-02T04:54:46;0.10;;;0.10;;
15490;SDS011;7847;50.930;4.336;2022-08-02T04:57:12;0.10;;;0.10;;
15490;SDS011;7847;50.930;4.336;2022-08-02T04:59:56;0.10;;;0.10;;
15490;SDS011;7847;50.930;4.336;2022-08-02T05:02:23;0.10;;;0.10;;
15490;SDS011;7847;50.930;4.336;2022-08-02T05:04:49;0.10;;;0.10;;
15490;SDS011;7847;50.930;4.336;2022-08-02T05:07:15;0.17;;;0.17;;
15490;SDS011;7847;50.930;4.336;2022-08-02T05:09:41;0.10;;;0.10;;
15490;SDS011;7847;50.930;4.336;2022-08-02T05:12:08;0.10;;;0.10;;
15490;SDS011;7847;50.930;4.336;2022-08-02T05:14:34;0.10;;;0.10;;
15490;SDS011;7847;50.930;4.336;2022-08-02T05:17:00;0.10;;;0.10;;
15490;SDS011;7847;50.930;4.336;2022-08-02T05:19:26;0.10;;;0.10;;
15490;SDS011;7847;50.930;4.336;2022-08-02T05:21:52;0.10;;;0.10;;
15490;SDS011;7847;50.930;4.336;2022-08-02T05:24:18;0.10;;;0.10;;
15490;SDS011;7847;50.930;4.336;2022-08-02T05:26:44;0.10;;;0.10;;
15490;SDS011;7847;50.930;4.336;2022-08-02T05:44:40;0.00;;;0.00;;
15490;SDS011;7847;50.930;4.336;2022-08-02T05:47:06;0.00;;;0.00;;
15490;SDS011;7847;50.930;4.336;2022-08-02T05:49:32;0.10;;;0.10;;
15490;SDS011;7847;50.930;4.336;2022-08-02T05:51:59;0.10;;;0.10;;
15490;SDS011;7847;50.930;4.336;2022-08-02T05:57:25;0.10;;;0.10;;
15490;SDS011;7847;50.930;4.336;2022-08-02T06:00:05;0.10;;;0.10;;
15490;SDS011;7847;50.930;4.336;2022-08-02T06:02:44;0.10;;;0.10;;
15490;SDS011;7847;50.930;4.336;2022-08-02T06:05:15;0.10;;;0.10;;
15490;SDS011;7847;50.930;4.336;2022-08-02T06:07:43;0.10;;;0.10;;
15490;SDS011;7847;50.930;4.336;2022-08-02T06:10:09;0.10;;;0.10;;
15490;SDS011;7847;50.930;4.336;2022-08-02T06:12:46;0.10;;;0.10;;
15490;SDS011;7847;50.930;4.336;2022-08-02T06:15:13;0.10;;;0.10;;
15490;SDS011;7847;50.930;4.336;2022-08-02T06:17:40;0.10;;;0.10;;
15490;SDS011;7847;50.930;4.336;2022-08-02T06:20:06;0.10;;;0.10;;
15490;SDS011;7847;50.930;4.336;2022-08-02T06:22:32;0.10;;;0.10;;
15490;SDS011;7847;50.930;4.336;2022-08-02T06:24:59;0.10;;;0.10;;
15490;SDS011;7847;50.930;4.336;2022-08-02T06:27:26;0.10;;;0.10;;
15490;SDS011;7847;50.930;4.336;2022-08-02T06:29:53;0.10;;;0.10;;
15490;SDS011;7847;50.930;4.336;2022-08-02T06:32:20;0.10;;;0.10;;
15490;SDS011;7847;50.930;4.336;2022-08-02T06:34:47;0.10;;;0.10;;
15490;SDS011;7847;50.930;4.336;2022-08-02T06:40:01;0.08;;;0.08;;
15490;SDS011;7847;50.930;4.336;2022-08-02T06:42:32;0.00;;;0.00;;
15490;SDS011;7847;50.930;4.336;2022-08-02T06:45:00;0.10;;;0.10;;
15490;SDS011;7847;50.930;4.336;2022-08-02T06:47:26;0.10;;;0.10;;
15490;SDS011;7847;50.930;4.336;2022-08-02T06:49:53;0.10;;;0.10;;
15490;SDS011;7847;50.930;4.336;2022-08-02T06:52:24;0.10;;;0.10;;
15490;SDS011;7847;50.930;4.336;2022-08-02T06:54:50;0.08;;;0.08;;
15490;SDS011;7847;50.930;4.336;2022-08-02T06:57:16;0.10;;;0.10;;
15490;SDS011;7847;50.930;4.336;2022-08-02T06:59:42;0.00;;;0.00;;
15490;SDS011;7847;50.930;4.336;2022-08-02T07:02:08;0.00;;;0.00;;
15490;SDS011;7847;50.930;4.336;2022-08-02T07:04:36;0.10;;;0.10;;
15490;SDS011;7847;50.930;4.336;2022-08-02T07:07:02;0.10;;;0.10;;
15490;SDS011;7847;50.930;4.336;2022-08-02T07:09:28;0.00;;;0.00;;
15490;SDS011;7847;50.930;4.336;2022-08-02T07:11:54;0.03;;;0.03;;
15490;SDS011;7847;50.930;4.336;2022-08-02T07:14:20;0.00;;;0.00;;
15490;SDS011;7847;50.930;4.336;2022-08-02T07:16:46;0.00;;;0.00;;
15490;SDS011;7847;50.930;4.336;2022-08-02T07:19:13;0.00;;;0.00;;
15490;SDS011;7847;50.930;4.336;2022-08-02T07:21:39;0.10;;;0.10;;
15490;SDS011;7847;50.930;4.336;2022-08-02T07:24:05;0.10;;;0.10;;
15490;SDS011;7847;50.930;4.336;2022-08-02T07:26:31;0.00;;;0.00;;
15490;SDS011;7847;50.930;4.336;2022-08-02T07:28:57;0.00;;;0.00;;
15490;SDS011;7847;50.930;4.336;2022-08-02T07:31:23;0.10;;;0.10;;
15490;SDS011;7847;50.930;4.336;2022-08-02T07:33:49;0.00;;;0.00;;
15490;SDS011;7847;50.930;4.336;2022-08-02T07:36:15;0.10;;;0.10;;
15490;SDS011;7847;50.930;4.336;2022-08-02T07:38:41;0.00;;;0.00;;
15490;SDS011;7847;50.930;4.336;2022-08-02T07:41:07;0.10;;;0.10;;
15490;SDS011;7847;50.930;4.336;2022-08-02T07:43:33;0.10;;;0.10;;
15490;SDS011;7847;50.930;4.336;2022-08-02T07:45:59;0.10;;;0.10;;
15490;SDS011;7847;50.930;4.336;2022-08-02T07:48:25;0.00;;;0.00;;
15490;SDS011;7847;50.930;4.336;2022-08-02T07:50:51;0.10;;;0.10;;
15490;SDS011;7847;50.930;4.336;2022-08-02T07:53:18;0.00;;;0.00;;
15490;SDS011;7847;50.930;4.336;2022-08-02T07:55:44;0.08;;;0.08;;
15490;SDS011;7847;50.930;4.336;2022-08-02T07:58:10;0.10;;;0.10;;
15490;SDS011;7847;50.930;4.336;2022-08-02T08:00:36;0.10;;;0.10;;
15490;SDS011;7847;50.930;4.336;2022-08-02T08:03:02;0.00;;;0.00;;
15490;SDS011;7847;50.930;4.336;2022-08-02T08:05:28;0.00;;;0.00;;
15490;SDS011;7847;50.930;4.336;2022-08-02T08:07:55;0.00;;;0.00;;
15490;SDS011;7847;50.930;4.336;2022-08-02T08:10:21;0.00;;;0.00;;
15490;SDS011;7847;50.930;4.336;2022-08-02T08:12:47;0.00;;;0.00;;
15490;SDS011;7847;50.930;4.336;2022-08-02T08:15:13;0.00;;;0.00;;
15490;SDS011;7847;50.930;4.336;2022-08-02T08:17:39;0.00;;;0.00;;
15490;SDS011;7847;50.930;4.336;2022-08-02T08:20:05;0.00;;;0.00;;
15490;SDS011;7847;50.930;4.336;2022-08-02T08:22:31;0.00;;;0.00;;
15490;SDS011;7847;50.930;4.336;2022-08-02T08:24:57;0.00;;;0.00;;
15490;SDS011;7847;50.930;4.336;2022-08-02T08:27:23;0.00;;;0.00;;
15490;SDS011;7847;50.930;4.336;2022-08-02T08:29:49;0.10;;;0.10;;
15490;SDS011;7847;50.930;4.336;2022-08-02T08:32:16;0.00;;;0.00;;
15490;SDS011;7847;50.930;4.336;2022-08-02T08:34:43;0.00;;;0.00;;
15490;SDS011;7847;50.930;4.336;2022-08-02T08:37:09;0.00;;;0.00;;
15490;SDS011;7847;50.930;4.336;2022-08-02T08:39:35;0.00;;;0.00;;
15490;SDS011;7847;50.930;4.336;2022-08-02T08:42:04;0.00;;;0.00;;
15490;SDS011;7847;50.930;4.336;2022-08-02T08:44:30;0.00;;;0.00;;
15490;SDS011;7847;50.930;4.336;2022-08-02T08:46:57;0.00;;;0.00;;
15490;SDS011;7847;50.930;4.336;2022-08-02T08:49:46;0.00;;;0.00;;
15490;SDS011;7847;50.930;4.336;2022-08-02T08:52:12;0.00;;;0.00;;
15490;SDS011;7847;50.930;4.336;2022-08-02T08:54:38;0.00;;;0.00;;
15490;SDS011;7847;50.930;4.336;2022-08-02T08:57:06;0.10;;;0.10;;
15490;SDS011;7847;50.930;4.336;2022-08-02T08:59:33;0.00;;;0.00;;
15490;SDS011;7847;50.930;4.336;2022-08-02T09:01:59;0.00;;;0.00;;
15490;SDS011;7847;50.930;4.336;2022-08-02T09:04:26;0.00;;;0.00;;
15490;SDS011;7847;50.930;4.336;2022-08-02T09:06:52;0.00;;;0.00;;
15490;SDS011;7847;50.930;4.336;2022-08-02T09:09:19;0.00;;;0.00;;
15490;SDS011;7847;50.930;4.336;2022-08-02T09:11:45;0.00;;;0.00;;
15490;SDS011;7847;50.930;4.336;2022-08-02T09:14:11;0.00;;;0.00;;
15490;SDS011;7847;50.930;4.336;2022-08-02T09:16:50;0.00;;;0.00;;
15490;SDS011;7847;50.930;4.336;2022-08-02T09:19:24;0.00;;;0.00;;
15490;SDS011;7847;50.930;4.336;2022-08-02T09:21:51;0.00;;;0.00;;
15490;SDS011;7847;50.930;4.336;2022-08-02T09:24:21;0.00;;;0.00;;
15490;SDS011;7847;50.930;4.336;2022-08-02T09:26:48;0.00;;;0.00;;
15490;SDS011;7847;50.930;4.336;2022-08-02T09:29:15;0.00;;;0.00;;
15490;SDS011;7847;50.930;4.336;2022-08-02T09:31:41;0.00;;;0.00;;
15490;SDS011;7847;50.930;4.336;2022-08-02T09:34:08;0.00;;;0.00;;
15490;SDS011;7847;50.930;4.336;2022-08-02T09:39:04;0.00;;;0.00;;
15490;SDS011;7847;50.930;4.336;2022-08-02T09:41:32;0.00;;;0.00;;
15490;SDS011;7847;50.930;4.336;2022-08-02T09:43:59;0.00;;;0.00;;
15490;SDS011;7847;50.930;4.336;2022-08-02T09:46:26;0.00;;;0.00;;
15490;SDS011;7847;50.930;4.336;2022-08-02T09:48:54;0.00;;;0.00;;
15490;SDS011;7847;50.930;4.336;2022-08-02T09:51:22;0.00;;;0.00;;
15490;SDS011;7847;50.930;4.336;2022-08-02T09:53:50;0.00;;;0.00;;
15490;SDS011;7847;50.930;4.336;2022-08-02T09:56:17;0.00;;;0.00;;
15490;SDS011;7847;50.930;4.336;2022-08-02T09:58:43;0.00;;;0.00;;
15490;SDS011;7847;50.930;4.336;2022-08-02T10:01:09;0.00;;;0.00;;
15490;SDS011;7847;50.930;4.336;2022-08-02T10:03:35;0.00;;;0.00;;
15490;SDS011;7847;50.930;4.336;2022-08-02T10:06:01;0.00;;;0.00;;
15490;SDS011;7847;50.930;4.336;2022-08-02T10:08:29;0.00;;;0.00;;
15490;SDS011;7847;50.930;4.336;2022-08-02T10:10:55;0.00;;;0.00;;
15490;SDS011;7847;50.930;4.336;2022-08-02T10:13:31;0.00;;;0.00;;
15490;SDS011;7847;50.930;4.336;2022-08-02T10:15:58;0.00;;;0.00;;
15490;SDS011;7847;50.930;4.336;2022-08-02T10:18:24;0.00;;;0.00;;
15490;SDS011;7847;50.930;4.336;2022-08-02T10:20:50;0.00;;;0.00;;
15490;SDS011;7847;50.930;4.336;2022-08-02T10:23:19;0.00;;;0.00;;
15490;SDS011;7847;50.930;4.336;2022-08-02T10:25:46;0.00;;;0.00;;
15490;SDS011;7847;50.930;4.336;2022-08-02T10:28:14;0.00;;;0.00;;
15490;SDS011;7847;50.930;4.336;2022-08-02T10:30:42;0.00;;;0.00;;
15490;SDS011;7847;50.930;4.336;2022-08-02T10:33:09;0.00;;;0.00;;
15490;SDS011;7847;50.930;4.336;2022-08-02T10:35:37;0.00;;;0.00;;
15490;SDS011;7847;50.930;4.336;2022-08-02T10:38:08;0.00;;;0.00;;
15490;SDS011;7847;50.930;4.336;2022-08-02T10:40:45;0.00;;;0.00;;
15490;SDS011;7847;50.930;4.336;2022-08-02T10:43:12;0.00;;;0.00;;
15490;SDS011;7847;50.930;4.336;2022-08-02T10:51:52;0.00;;;0.00;;
15490;SDS011;7847;50.930;4.336;2022-08-02T10:54:16;0.00;;;0.00;;
15490;SDS011;7847;50.930;4.336;2022-08-02T10:56:45;0.00;;;0.00;;
15490;SDS011;7847;50.930;4.336;2022-08-02T11:01:57;0.00;;;0.00;;
15490;SDS011;7847;50.930;4.336;2022-08-02T11:07:11;0.00;;;0.00;;
15490;SDS011;7847;50.930;4.336;2022-08-02T11:09:38;0.00;;;0.00;;
15490;SDS011;7847;50.930;4.336;2022-08-02T11:12:08;0.00;;;0.00;;
15490;SDS011;7847;50.930;4.336;2022-08-02T11:14:36;0.00;;;0.00;;
15490;SDS011;7847;50.930;4.336;2022-08-02T11:19:30;0.00;;;0.00;;
15490;SDS011;7847;50.930;4.336;2022-08-02T11:22:03;0.00;;;0.00;;
15490;SDS011;7847;50.930;4.336;2022-08-02T11:24:30;0.00;;;0.00;;
15490;SDS011;7847;50.930;4.336;2022-08-02T11:26:58;0.00;;;0.00;;
15490;SDS011;7847;50.930;4.336;2022-08-02T11:29:31;0.00;;;0.00;;
15490;SDS011;7847;50.930;4.336;2022-08-02T11:31:57;0.00;;;0.00;;
15490;SDS011;7847;50.930;4.336;2022-08-02T11:34:24;0.00;;;0.00;;
15490;SDS011;7847;50.930;4.336;2022-08-02T11:36:51;0.00;;;0.00;;
15490;SDS011;7847;50.930;4.336;2022-08-02T11:39:18;0.00;;;0.00;;
15490;SDS011;7847;50.930;4.336;2022-08-02T11:41:48;0.00;;;0.00;;
15490;SDS011;7847;50.930;4.336;2022-08-02T11:44:14;0.00;;;0.00;;
15490;SDS011;7847;50.930;4.336;2022-08-02T11:46:40;0.00;;;0.00;;
15490;SDS011;7847;50.930;4.336;2022-08-02T11:49:13;0.00;;;0.00;;
15490;SDS011;7847;50.930;4.336;2022-08-02T11:51:50;0.00;;;0.00;;
15490;SDS011;7847;50.930;4.336;2022-08-02T11:54:26;0.00;;;0.00;;
15490;SDS011;7847;50.930;4.336;2022-08-02T11:56:53;0.00;;;0.00;;
15490;SDS011;7847;50.930;4.336;2022-08-02T11:59:19;0.00;;;0.00;;
15490;SDS011;7847;50.930;4.336;2022-08-02T12:01:45;0.00;;;0.00;;
15490;SDS011;7847;50.930;4.336;2022-08-02T12:04:15;0.00;;;0.00;;
15490;SDS011;7847;50.930;4.336;2022-08-02T12:06:41;0.00;;;0.00;;
15490;SDS011;7847;50.930;4.336;2022-08-02T12:09:08;0.00;;;0.00;;
15490;SDS011;7847;50.930;4.336;2022-08-02T12:11:35;0.00;;;0.00;;
15490;SDS011;7847;50.930;4.336;2022-08-02T12:14:02;0.00;;;0.00;;
15490;SDS011;7847;50.930;4.336;2022-08-02T12:16:33;0.00;;;0.00;;
15490;SDS011;7847;50.930;4.336;2022-08-02T12:19:18;0.00;;;0.00;;
15490;SDS011;7847;50.930;4.336;2022-08-02T12:21:48;0.00;;;0.00;;
15490;SDS011;7847;50.930;4.336;2022-08-02T12:24:25;0.00;;;0.00;;
15490;SDS011;7847;50.930;4.336;2022-08-02T12:26:52;0.00;;;0.00;;
15490;SDS011;7847;50.930;4.336;2022-08-02T12:29:27;0.00;;;0.00;;
15490;SDS011;7847;50.930;4.336;2022-08-02T12:31:53;0.00;;;0.00;;
15490;SDS011;7847;50.930;4.336;2022-08-02T12:34:19;0.00;;;0.00;;
15490;SDS011;7847;50.930;4.336;2022-08-02T12:37:05;0.00;;;0.00;;
15490;SDS011;7847;50.930;4.336;2022-08-02T12:39:41;0.00;;;0.00;;
15490;SDS011;7847;50.930;4.336;2022-08-02T12:42:09;0.00;;;0.00;;
15490;SDS011;7847;50.930;4.336;2022-08-02T12:44:37;0.00;;;0.00;;
15490;SDS011;7847;50.930;4.336;2022-08-02T12:47:04;0.00;;;0.00;;
15490;SDS011;7847;50.930;4.336;2022-08-02T12:49:31;0.00;;;0.00;;
15490;SDS011;7847;50.930;4.336;2022-08-02T12:51:57;0.00;;;0.00;;
15490;SDS011;7847;50.930;4.336;2022-08-02T12:54:27;0.00;;;0.00;;
15490;SDS011;7847;50.930;4.336;2022-08-02T12:56:54;0.00;;;0.00;;
15490;SDS011;7847;50.930;4.336;2022-08-02T12:59:34;0.00;;;0.00;;
15490;SDS011;7847;50.930;4.336;2022-08-02T13:02:04;0.00;;;0.00;;
15490;SDS011;7847;50.930;4.336;2022-08-02T13:04:30;0.00;;;0.00;;
15490;SDS011;7847;50.930;4.336;2022-08-02T13:06:57;0.00;;;0.00;;
15490;SDS011;7847;50.930;4.336;2022-08-02T13:09:23;0.00;;;0.00;;
15490;SDS011;7847;50.930;4.336;2022-08-02T13:11:49;0.00;;;0.00;;
15490;SDS011;7847;50.930;4.336;2022-08-02T13:14:15;0.00;;;0.00;;
15490;SDS011;7847;50.930;4.336;2022-08-02T13:16:41;0.00;;;0.00;;
15490;SDS011;7847;50.930;4.336;2022-08-02T13:19:08;0.00;;;0.00;;
15490;SDS011;7847;50.930;4.336;2022-08-02T13:21:34;0.00;;;0.00;;
15490;SDS011;7847;50.930;4.336;2022-08-02T13:24:00;0.00;;;0.00;;
15490;SDS011;7847;50.930;4.336;2022-08-02T13:26:26;0.00;;;0.00;;
15490;SDS011;7847;50.930;4.336;2022-08-02T13:28:53;0.00;;;0.00;;
15490;SDS011;7847;50.930;4.336;2022-08-02T13:31:19;0.00;;;0.00;;
15490;SDS011;7847;50.930;4.336;2022-08-02T13:33:45;0.00;;;0.00;;
15490;SDS011;7847;50.930;4.336;2022-08-02T13:36:11;0.00;;;0.00;;
15490;SDS011;7847;50.930;4.336;2022-08-02T13:38:37;0.00;;;0.00;;
15490;SDS011;7847;50.930;4.336;2022-08-02T13:41:03;0.00;;;0.00;;
15490;SDS011;7847;50.930;4.336;2022-08-02T13:43:32;0.00;;;0.00;;
15490;SDS011;7847;50.930;4.336;2022-08-02T13:45:58;0.00;;;0.00;;
15490;SDS011;7847;50.930;4.336;2022-08-02T13:48:24;0.00;;;0.00;;
15490;SDS011;7847;50.930;4.336;2022-08-02T13:50:51;0.00;;;0.00;;
15490;SDS011;7847;50.930;4.336;2022-08-02T13:53:17;0.00;;;0.00;;
15490;SDS011;7847;50.930;4.336;2022-08-02T13:55:43;0.00;;;0.00;;
15490;SDS011;7847;50.930;4.336;2022-08-02T13:58:09;0.00;;;0.00;;
15490;SDS011;7847;50.930;4.336;2022-08-02T14:00:35;0.00;;;0.00;;
15490;SDS011;7847;50.930;4.336;2022-08-02T14:03:02;0.00;;;0.00;;
15490;SDS011;7847;50.930;4.336;2022-08-02T14:05:28;0.00;;;0.00;;
15490;SDS011;7847;50.930;4.336;2022-08-02T14:07:57;0.00;;;0.00;;
15490;SDS011;7847;50.930;4.336;2022-08-02T14:10:24;0.00;;;0.00;;
15490;SDS011;7847;50.930;4.336;2022-08-02T14:12:51;0.00;;;0.00;;
15490;SDS011;7847;50.930;4.336;2022-08-02T14:15:17;0.00;;;0.00;;
15490;SDS011;7847;50.930;4.336;2022-08-02T14:17:43;0.00;;;0.00;;
15490;SDS011;7847;50.930;4.336;2022-08-02T14:20:10;0.00;;;0.00;;
15490;SDS011;7847;50.930;4.336;2022-08-02T14:22:36;0.00;;;0.00;;
15490;SDS011;7847;50.930;4.336;2022-08-02T14:25:02;0.00;;;0.00;;
15490;SDS011;7847;50.930;4.336;2022-08-02T14:27:29;0.00;;;0.00;;
15490;SDS011;7847;50.930;4.336;2022-08-02T14:29:55;0.00;;;0.00;;
15490;SDS011;7847;50.930;4.336;2022-08-02T14:32:22;0.00;;;0.00;;
15490;SDS011;7847;50.930;4.336;2022-08-02T14:34:48;0.00;;;0.00;;
15490;SDS011;7847;50.930;4.336;2022-08-02T14:37:14;0.00;;;0.00;;
15490;SDS011;7847;50.930;4.336;2022-08-02T14:39:40;0.00;;;0.00;;
15490;SDS011;7847;50.930;4.336;2022-08-02T14:42:06;0.00;;;0.00;;
15490;SDS011;7847;50.930;4.336;2022-08-02T14:44:32;0.00;;;0.00;;
15490;SDS011;7847;50.930;4.336;2022-08-02T14:46:58;0.00;;;0.00;;
15490;SDS011;7847;50.930;4.336;2022-08-02T14:49:25;0.00;;;0.00;;
15490;SDS011;7847;50.930;4.336;2022-08-02T14:51:51;0.00;;;0.00;;
15490;SDS011;7847;50.930;4.336;2022-08-02T14:54:17;0.00;;;0.00;;
15490;SDS011;7847;50.930;4.336;2022-08-02T14:56:43;0.00;;;0.00;;
15490;SDS011;7847;50.930;4.336;2022-08-02T14:59:09;0.00;;;0.00;;
15490;SDS011;7847;50.930;4.336;2022-08-02T15:01:35;0.00;;;0.00;;
15490;SDS011;7847;50.930;4.336;2022-08-02T15:04:01;0.00;;;0.00;;
15490;SDS011;7847;50.930;4.336;2022-08-02T15:06:27;0.00;;;0.00;;
15490;SDS011;7847;50.930;4.336;2022-08-02T15:08:57;0.00;;;0.00;;
15490;SDS011;7847;50.930;4.336;2022-08-02T15:11:23;0.00;;;0.00;;
15490;SDS011;7847;50.930;4.336;2022-08-02T15:13:49;0.00;;;0.00;;
15490;SDS011;7847;50.930;4.336;2022-08-02T15:16:15;0.00;;;0.00;;
15490;SDS011;7847;50.930;4.336;2022-08-02T15:18:42;0.00;;;0.00;;
15490;SDS011;7847;50.930;4.336;2022-08-02T15:21:08;0.00;;;0.00;;
15490;SDS011;7847;50.930;4.336;2022-08-02T15:23:34;0.00;;;0.00;;
15490;SDS011;7847;50.930;4.336;2022-08-02T15:26:01;0.00;;;0.00;;
15490;SDS011;7847;50.930;4.336;2022-08-02T15:28:27;0.00;;;0.00;;
15490;SDS011;7847;50.930;4.336;2022-08-02T15:30:55;0.00;;;0.00;;
15490;SDS011;7847;50.930;4.336;2022-08-02T15:33:21;0.00;;;0.00;;
15490;SDS011;7847;50.930;4.336;2022-08-02T15:35:47;0.00;;;0.00;;
15490;SDS011;7847;50.930;4.336;2022-08-02T15:38:14;0.00;;;0.00;;
15490;SDS011;7847;50.930;4.336;2022-08-02T15:40:40;0.00;;;0.00;;
15490;SDS011;7847;50.930;4.336;2022-08-02T15:43:07;0.00;;;0.00;;
15490;SDS011;7847;50.930;4.336;2022-08-02T15:45:33;0.00;;;0.00;;
15490;SDS011;7847;50.930;4.336;2022-08-02T15:47:59;0.00;;;0.00;;